sensor_id;sensor_type;location;lat;lon;timestamp;P1;durP1;ratioP1;P2;durP2;ratioP2
49834;SDS011;35729;52.090;13.162;2023-07-02T00:01:02;5.10;;;2.35;;
49834;SDS011;35729;52.090;13.162;2023-07-02T00:03:30;3.50;;;2.13;;
49834;SDS011;35729;52.090;13.162;2023-07-02T00:05:59;2.08;;;1.88;;
49834;SDS011;35729;52.090;13.162;2023-07-02T00:08:27;5.68;;;1.88;;
49834;SDS011;35729;52.090;13.162;2023-07-02T00:10:55;2.53;;;1.73;;
49834;SDS011;35729;52.090;13.162;2023-07-02T00:13:26;2.53;;;2.20;;
49834;SDS011;35729;52.090;13.162;2023-07-02T00:15:55;2.70;;;1.85;;
49834;SDS011;35729;52.090;13.162;2023-07-02T00:18:23;3.80;;;1.77;;
49834;SDS011;35729;52.090;13.162;2023-07-02T00:20:59;3.95;;;2.13;;
49834;SDS011;35729;52.090;13.162;2023-07-02T00:23:28;6.57;;;2.10;;
49834;SDS011;35729;52.090;13.162;2023-07-02T00:25:56;5.60;;;2.25;;
49834;SDS011;35729;52.090;13.162;2023-07-02T00:28:27;3.80;;;2.35;;
49834;SDS011;35729;52.090;13.162;2023-07-02T00:30:56;3.28;;;2.10;;
49834;SDS011;35729;52.090;13.162;2023-07-02T00:33:24;3.17;;;2.08;;
49834;SDS011;35729;52.090;13.162;2023-07-02T00:35:54;3.35;;;2.38;;
49834;SDS011;35729;52.090;13.162;2023-07-02T00:38:23;5.25;;;2.22;;
49834;SDS011;35729;52.090;13.162;2023-07-02T00:40:51;2.35;;;1.83;;
49834;SDS011;35729;52.090;13.162;2023-07-02T00:43:20;3.92;;;2.13;;
49834;SDS011;35729;52.090;13.162;2023-07-02T00:45:51;3.47;;;2.10;;
49834;SDS011;35729;52.090;13.162;2023-07-02T00:48:19;3.05;;;1.60;;
49834;SDS011;35729;52.090;13.162;2023-07-02T00:50:48;2.85;;;2.10;;
49834;SDS011;35729;52.090;13.162;2023-07-02T00:53:16;3.53;;;2.30;;
49834;SDS011;35729;52.090;13.162;2023-07-02T00:55:52;5.07;;;2.50;;
49834;SDS011;35729;52.090;13.162;2023-07-02T00:58:27;4.18;;;2.30;;
49834;SDS011;35729;52.090;13.162;2023-07-02T01:00:58;2.40;;;2.20;;
49834;SDS011;35729;52.090;13.162;2023-07-02T01:03:27;2.17;;;1.85;;
49834;SDS011;35729;52.090;13.162;2023-07-02T01:05:58;2.50;;;2.30;;
49834;SDS011;35729;52.090;13.162;2023-07-02T01:08:26;2.92;;;2.22;;
49834;SDS011;35729;52.090;13.162;2023-07-02T01:10:55;2.00;;;1.80;;
49834;SDS011;35729;52.090;13.162;2023-07-02T01:13:24;2.40;;;2.10;;
49834;SDS011;35729;52.090;13.162;2023-07-02T01:15:53;3.67;;;2.35;;
49834;SDS011;35729;52.090;13.162;2023-07-02T01:18:26;3.35;;;2.05;;
49834;SDS011;35729;52.090;13.162;2023-07-02T01:20:57;5.32;;;2.35;;
49834;SDS011;35729;52.090;13.162;2023-07-02T01:23:26;2.33;;;2.00;;
49834;SDS011;35729;52.090;13.162;2023-07-02T01:25:55;5.32;;;2.20;;
49834;SDS011;35729;52.090;13.162;2023-07-02T01:28:23;3.15;;;2.30;;
49834;SDS011;35729;52.090;13.162;2023-07-02T01:30:52;4.07;;;2.70;;
49834;SDS011;35729;52.090;13.162;2023-07-02T01:33:20;3.28;;;2.08;;
49834;SDS011;35729;52.090;13.162;2023-07-02T01:35:49;2.70;;;2.50;;
49834;SDS011;35729;52.090;13.162;2023-07-02T01:38:20;3.97;;;2.88;;
49834;SDS011;35729;52.090;13.162;2023-07-02T01:40:49;3.42;;;2.78;;
49834;SDS011;35729;52.090;13.162;2023-07-02T01:43:17;2.60;;;2.40;;
49834;SDS011;35729;52.090;13.162;2023-07-02T01:45:46;3.80;;;2.70;;
49834;SDS011;35729;52.090;13.162;2023-07-02T01:48:14;3.28;;;2.95;;
49834;SDS011;35729;52.090;13.162;2023-07-02T01:50:43;3.30;;;3.00;;
49834;SDS011;35729;52.090;13.162;2023-07-02T01:53:11;3.67;;;2.95;;
49834;SDS011;35729;52.090;13.162;2023-07-02T01:55:42;3.00;;;2.80;;
49834;SDS011;35729;52.090;13.162;2023-07-02T01:58:11;3.47;;;3.00;;
49834;SDS011;35729;52.090;13.162;2023-07-02T02:00:39;3.45;;;2.90;;
49834;SDS011;35729;52.090;13.162;2023-07-02T02:03:08;6.28;;;2.97;;
49834;SDS011;35729;52.090;13.162;2023-07-02T02:05:36;4.13;;;3.00;;
49834;SDS011;35729;52.090;13.162;2023-07-02T02:08:05;4.15;;;3.20;;
49834;SDS011;35729;52.090;13.162;2023-07-02T02:10:33;4.85;;;3.08;;
49834;SDS011;35729;52.090;13.162;2023-07-02T02:13:04;3.10;;;2.80;;
49834;SDS011;35729;52.090;13.162;2023-07-02T02:15:33;4.07;;;3.05;;
49834;SDS011;35729;52.090;13.162;2023-07-02T02:18:01;6.15;;;3.38;;
49834;SDS011;35729;52.090;13.162;2023-07-02T02:20:30;5.97;;;3.65;;
49834;SDS011;35729;52.090;13.162;2023-07-02T02:22:58;4.40;;;3.15;;
49834;SDS011;35729;52.090;13.162;2023-07-02T02:25:27;3.30;;;3.00;;
49834;SDS011;35729;52.090;13.162;2023-07-02T02:27:55;4.00;;;2.88;;
49834;SDS011;35729;52.090;13.162;2023-07-02T02:30:26;3.70;;;2.80;;
49834;SDS011;35729;52.090;13.162;2023-07-02T02:32:55;3.80;;;3.50;;
49834;SDS011;35729;52.090;13.162;2023-07-02T02:35:23;3.42;;;3.05;;
49834;SDS011;35729;52.090;13.162;2023-07-02T02:37:52;4.82;;;2.97;;
49834;SDS011;35729;52.090;13.162;2023-07-02T02:40:20;3.35;;;3.05;;
49834;SDS011;35729;52.090;13.162;2023-07-02T02:42:49;4.50;;;3.63;;
49834;SDS011;35729;52.090;13.162;2023-07-02T02:45:17;4.32;;;3.00;;
49834;SDS011;35729;52.090;13.162;2023-07-02T02:47:48;4.57;;;3.88;;
49834;SDS011;35729;52.090;13.162;2023-07-02T02:50:17;4.10;;;3.70;;
49834;SDS011;35729;52.090;13.162;2023-07-02T02:52:45;3.55;;;3.10;;
49834;SDS011;35729;52.090;13.162;2023-07-02T02:55:14;6.32;;;3.67;;
49834;SDS011;35729;52.090;13.162;2023-07-02T02:57:42;4.53;;;3.05;;
49834;SDS011;35729;52.090;13.162;2023-07-02T03:00:11;3.85;;;3.20;;
49834;SDS011;35729;52.090;13.162;2023-07-02T03:02:42;3.30;;;3.00;;
49834;SDS011;35729;52.090;13.162;2023-07-02T03:05:13;5.63;;;3.50;;
49834;SDS011;35729;52.090;13.162;2023-07-02T03:07:42;3.38;;;3.08;;
49834;SDS011;35729;52.090;13.162;2023-07-02T03:10:10;3.50;;;3.00;;
49834;SDS011;35729;52.090;13.162;2023-07-02T03:12:39;5.63;;;3.50;;
49834;SDS011;35729;52.090;13.162;2023-07-02T03:15:07;3.83;;;3.08;;
49834;SDS011;35729;52.090;13.162;2023-07-02T03:17:36;3.17;;;2.88;;
49834;SDS011;35729;52.090;13.162;2023-07-02T03:20:06;3.50;;;3.00;;
49834;SDS011;35729;52.090;13.162;2023-07-02T03:22:38;3.40;;;3.03;;
49834;SDS011;35729;52.090;13.162;2023-07-02T03:25:07;4.53;;;2.92;;
49834;SDS011;35729;52.090;13.162;2023-07-02T03:27:36;4.05;;;2.80;;
49834;SDS011;35729;52.090;13.162;2023-07-02T03:30:05;4.82;;;2.60;;
49834;SDS011;35729;52.090;13.162;2023-07-02T03:32:35;3.90;;;2.75;;
49834;SDS011;35729;52.090;13.162;2023-07-02T03:35:04;4.63;;;2.67;;
49834;SDS011;35729;52.090;13.162;2023-07-02T03:37:33;3.58;;;2.95;;
49834;SDS011;35729;52.090;13.162;2023-07-02T03:40:05;3.72;;;3.00;;
49834;SDS011;35729;52.090;13.162;2023-07-02T03:42:34;6.28;;;2.90;;
49834;SDS011;35729;52.090;13.162;2023-07-02T03:45:03;3.65;;;2.95;;
49834;SDS011;35729;52.090;13.162;2023-07-02T03:47:32;4.82;;;3.40;;
49834;SDS011;35729;52.090;13.162;2023-07-02T03:50:00;4.35;;;2.70;;
49834;SDS011;35729;52.090;13.162;2023-07-02T03:52:29;4.43;;;3.38;;
49834;SDS011;35729;52.090;13.162;2023-07-02T03:54:57;6.28;;;3.28;;
49834;SDS011;35729;52.090;13.162;2023-07-02T03:57:28;5.05;;;3.03;;
49834;SDS011;35729;52.090;13.162;2023-07-02T03:59:57;4.18;;;2.70;;
49834;SDS011;35729;52.090;13.162;2023-07-02T04:02:25;3.33;;;2.70;;
49834;SDS011;35729;52.090;13.162;2023-07-02T04:04:54;3.47;;;2.30;;
49834;SDS011;35729;52.090;13.162;2023-07-02T04:07:23;3.83;;;2.50;;
49834;SDS011;35729;52.090;13.162;2023-07-02T04:09:51;2.83;;;2.53;;
49834;SDS011;35729;52.090;13.162;2023-07-02T04:12:20;4.03;;;2.42;;
49834;SDS011;35729;52.090;13.162;2023-07-02T04:14:51;3.80;;;3.10;;
49834;SDS011;35729;52.090;13.162;2023-07-02T04:17:19;20.63;;;14.13;;
49834;SDS011;35729;52.090;13.162;2023-07-02T04:19:48;3.17;;;2.90;;
49834;SDS011;35729;52.090;13.162;2023-07-02T04:22:16;4.20;;;2.83;;
49834;SDS011;35729;52.090;13.162;2023-07-02T04:24:45;5.53;;;3.45;;
49834;SDS011;35729;52.090;13.162;2023-07-02T04:27:13;3.13;;;2.83;;
49834;SDS011;35729;52.090;13.162;2023-07-02T04:29:42;3.40;;;2.90;;
49834;SDS011;35729;52.090;13.162;2023-07-02T04:32:13;4.45;;;2.90;;
49834;SDS011;35729;52.090;13.162;2023-07-02T04:34:42;4.07;;;2.72;;
49834;SDS011;35729;52.090;13.162;2023-07-02T04:37:10;3.20;;;2.90;;
49834;SDS011;35729;52.090;13.162;2023-07-02T04:39:40;5.50;;;2.85;;
49834;SDS011;35729;52.090;13.162;2023-07-02T04:42:08;5.50;;;2.80;;
49834;SDS011;35729;52.090;13.162;2023-07-02T04:44:38;4.03;;;2.90;;
49834;SDS011;35729;52.090;13.162;2023-07-02T04:47:08;4.85;;;3.10;;
49834;SDS011;35729;52.090;13.162;2023-07-02T04:49:39;5.65;;;2.95;;
49834;SDS011;35729;52.090;13.162;2023-07-02T04:52:08;4.13;;;3.17;;
49834;SDS011;35729;52.090;13.162;2023-07-02T04:54:36;4.68;;;3.05;;
49834;SDS011;35729;52.090;13.162;2023-07-02T04:57:05;4.22;;;2.75;;
49834;SDS011;35729;52.090;13.162;2023-07-02T04:59:33;4.43;;;2.78;;
49834;SDS011;35729;52.090;13.162;2023-07-02T05:02:02;3.38;;;2.88;;
49834;SDS011;35729;52.090;13.162;2023-07-02T05:04:31;3.50;;;2.50;;
49834;SDS011;35729;52.090;13.162;2023-07-02T05:07:02;3.03;;;2.50;;
49834;SDS011;35729;52.090;13.162;2023-07-02T05:09:31;4.60;;;2.85;;
49834;SDS011;35729;52.090;13.162;2023-07-02T05:11:59;4.45;;;2.88;;
49834;SDS011;35729;52.090;13.162;2023-07-02T05:14:27;2.70;;;2.50;;
49834;SDS011;35729;52.090;13.162;2023-07-02T05:16:56;2.60;;;2.40;;
49834;SDS011;35729;52.090;13.162;2023-07-02T05:19:24;3.03;;;2.50;;
49834;SDS011;35729;52.090;13.162;2023-07-02T05:21:53;4.20;;;2.63;;
49834;SDS011;35729;52.090;13.162;2023-07-02T05:24:24;3.30;;;2.70;;
49834;SDS011;35729;52.090;13.162;2023-07-02T05:26:52;3.72;;;2.50;;
49834;SDS011;35729;52.090;13.162;2023-07-02T05:29:21;3.42;;;2.40;;
49834;SDS011;35729;52.090;13.162;2023-07-02T05:31:49;3.30;;;2.60;;
49834;SDS011;35729;52.090;13.162;2023-07-02T05:34:18;3.03;;;2.50;;
49834;SDS011;35729;52.090;13.162;2023-07-02T05:36:47;4.18;;;2.25;;
49834;SDS011;35729;52.090;13.162;2023-07-02T05:39:15;4.28;;;2.65;;
49834;SDS011;35729;52.090;13.162;2023-07-02T05:41:46;2.83;;;2.42;;
49834;SDS011;35729;52.090;13.162;2023-07-02T05:44:15;4.55;;;2.65;;
49834;SDS011;35729;52.090;13.162;2023-07-02T05:46:44;3.28;;;2.30;;
49834;SDS011;35729;52.090;13.162;2023-07-02T05:49:13;4.85;;;2.60;;
49834;SDS011;35729;52.090;13.162;2023-07-02T05:51:41;4.20;;;2.38;;
49834;SDS011;35729;52.090;13.162;2023-07-02T05:54:10;7.07;;;2.58;;
49834;SDS011;35729;52.090;13.162;2023-07-02T05:56:38;5.43;;;2.50;;
49834;SDS011;35729;52.090;13.162;2023-07-02T05:59:09;4.75;;;2.38;;
49834;SDS011;35729;52.090;13.162;2023-07-02T06:01:42;2.85;;;2.42;;
49834;SDS011;35729;52.090;13.162;2023-07-02T06:04:11;4.10;;;2.28;;
49834;SDS011;35729;52.090;13.162;2023-07-02T06:06:39;3.78;;;2.35;;
49834;SDS011;35729;52.090;13.162;2023-07-02T06:09:15;3.55;;;2.55;;
49834;SDS011;35729;52.090;13.162;2023-07-02T06:11:43;3.92;;;2.17;;
49834;SDS011;35729;52.090;13.162;2023-07-02T06:14:14;3.08;;;2.40;;
49834;SDS011;35729;52.090;13.162;2023-07-02T06:16:43;3.45;;;2.30;;
49834;SDS011;35729;52.090;13.162;2023-07-02T06:19:12;3.65;;;2.25;;
49834;SDS011;35729;52.090;13.162;2023-07-02T06:21:40;7.70;;;2.60;;
49834;SDS011;35729;52.090;13.162;2023-07-02T06:24:15;3.47;;;2.50;;
49834;SDS011;35729;52.090;13.162;2023-07-02T06:26:43;4.47;;;2.05;;
49834;SDS011;35729;52.090;13.162;2023-07-02T06:29:12;3.25;;;2.10;;
49834;SDS011;35729;52.090;13.162;2023-07-02T06:31:43;3.20;;;1.90;;
49834;SDS011;35729;52.090;13.162;2023-07-02T06:34:11;4.38;;;2.40;;
49834;SDS011;35729;52.090;13.162;2023-07-02T06:36:40;5.15;;;2.70;;
49834;SDS011;35729;52.090;13.162;2023-07-02T06:39:08;3.72;;;2.30;;
49834;SDS011;35729;52.090;13.162;2023-07-02T06:41:37;3.00;;;2.22;;
49834;SDS011;35729;52.090;13.162;2023-07-02T06:44:05;3.90;;;2.50;;
49834;SDS011;35729;52.090;13.162;2023-07-02T06:46:37;4.00;;;2.58;;
49834;SDS011;35729;52.090;13.162;2023-07-02T06:49:05;3.53;;;2.10;;
49834;SDS011;35729;52.090;13.162;2023-07-02T06:51:34;4.93;;;2.50;;
49834;SDS011;35729;52.090;13.162;2023-07-02T06:54:03;3.15;;;2.42;;
49834;SDS011;35729;52.090;13.162;2023-07-02T06:56:31;3.28;;;1.90;;
49834;SDS011;35729;52.090;13.162;2023-07-02T06:59:06;3.45;;;2.40;;
49834;SDS011;35729;52.090;13.162;2023-07-02T07:01:37;3.67;;;2.17;;
49834;SDS011;35729;52.090;13.162;2023-07-02T07:04:05;3.50;;;2.58;;
49834;SDS011;35729;52.090;13.162;2023-07-02T07:06:34;4.13;;;2.30;;
49834;SDS011;35729;52.090;13.162;2023-07-02T07:09:02;7.85;;;2.70;;
49834;SDS011;35729;52.090;13.162;2023-07-02T07:11:31;3.42;;;2.35;;
49834;SDS011;35729;52.090;13.162;2023-07-02T07:13:59;4.35;;;2.28;;
49834;SDS011;35729;52.090;13.162;2023-07-02T07:16:28;5.05;;;1.90;;
49834;SDS011;35729;52.090;13.162;2023-07-02T07:18:59;4.22;;;2.25;;
49834;SDS011;35729;52.090;13.162;2023-07-02T07:21:27;6.57;;;2.40;;
49834;SDS011;35729;52.090;13.162;2023-07-02T07:23:56;2.97;;;2.15;;
49834;SDS011;35729;52.090;13.162;2023-07-02T07:26:25;5.47;;;2.53;;
49834;SDS011;35729;52.090;13.162;2023-07-02T07:28:53;3.00;;;1.98;;
49834;SDS011;35729;52.090;13.162;2023-07-02T07:31:23;5.35;;;2.30;;
49834;SDS011;35729;52.090;13.162;2023-07-02T07:33:51;3.63;;;2.30;;
49834;SDS011;35729;52.090;13.162;2023-07-02T07:36:22;6.43;;;2.30;;
49834;SDS011;35729;52.090;13.162;2023-07-02T07:38:51;4.43;;;2.30;;
49834;SDS011;35729;52.090;13.162;2023-07-02T07:41:19;2.80;;;1.75;;
49834;SDS011;35729;52.090;13.162;2023-07-02T07:43:48;2.72;;;2.20;;
49834;SDS011;35729;52.090;13.162;2023-07-02T07:46:16;3.25;;;2.38;;
49834;SDS011;35729;52.090;13.162;2023-07-02T07:48:45;3.30;;;2.28;;
49834;SDS011;35729;52.090;13.162;2023-07-02T07:51:13;5.70;;;2.55;;
49834;SDS011;35729;52.090;13.162;2023-07-02T07:53:44;3.35;;;2.17;;
49834;SDS011;35729;52.090;13.162;2023-07-02T07:56:13;4.30;;;1.98;;
49834;SDS011;35729;52.090;13.162;2023-07-02T07:58:41;2.95;;;1.92;;
49834;SDS011;35729;52.090;13.162;2023-07-02T08:01:10;6.88;;;2.03;;
49834;SDS011;35729;52.090;13.162;2023-07-02T08:03:38;3.50;;;2.03;;
49834;SDS011;35729;52.090;13.162;2023-07-02T08:06:06;5.28;;;1.90;;
49834;SDS011;35729;52.090;13.162;2023-07-02T08:08:35;3.03;;;2.25;;
49834;SDS011;35729;52.090;13.162;2023-07-02T08:11:06;4.00;;;1.60;;
49834;SDS011;35729;52.090;13.162;2023-07-02T08:13:34;3.20;;;1.92;;
49834;SDS011;35729;52.090;13.162;2023-07-02T08:16:03;3.05;;;1.80;;
49834;SDS011;35729;52.090;13.162;2023-07-02T08:18:34;7.07;;;2.08;;
49834;SDS011;35729;52.090;13.162;2023-07-02T08:21:02;2.40;;;2.08;;
49834;SDS011;35729;52.090;13.162;2023-07-02T08:23:31;2.88;;;1.75;;
49834;SDS011;35729;52.090;13.162;2023-07-02T08:26:00;4.13;;;2.35;;
49834;SDS011;35729;52.090;13.162;2023-07-02T08:28:31;3.42;;;1.98;;
49834;SDS011;35729;52.090;13.162;2023-07-02T08:30:59;2.63;;;2.10;;
49834;SDS011;35729;52.090;13.162;2023-07-02T08:33:28;3.65;;;2.10;;
49834;SDS011;35729;52.090;13.162;2023-07-02T08:35:56;3.10;;;2.30;;
49834;SDS011;35729;52.090;13.162;2023-07-02T08:38:25;3.35;;;2.15;;
49834;SDS011;35729;52.090;13.162;2023-07-02T08:40:54;2.45;;;2.25;;
49834;SDS011;35729;52.090;13.162;2023-07-02T08:43:23;4.45;;;2.45;;
49834;SDS011;35729;52.090;13.162;2023-07-02T08:45:56;5.68;;;2.65;;
49834;SDS011;35729;52.090;13.162;2023-07-02T08:48:25;3.90;;;2.90;;
49834;SDS011;35729;52.090;13.162;2023-07-02T08:50:54;5.78;;;3.10;;
49834;SDS011;35729;52.090;13.162;2023-07-02T08:53:23;5.80;;;2.78;;
49834;SDS011;35729;52.090;13.162;2023-07-02T08:55:54;4.03;;;2.85;;
49834;SDS011;35729;52.090;13.162;2023-07-02T08:58:24;3.45;;;3.15;;
49834;SDS011;35729;52.090;13.162;2023-07-02T09:01:06;5.35;;;3.40;;
49834;SDS011;35729;52.090;13.162;2023-07-02T09:03:35;4.38;;;3.50;;
49834;SDS011;35729;52.090;13.162;2023-07-02T09:06:05;3.60;;;3.30;;
49834;SDS011;35729;52.090;13.162;2023-07-02T09:08:34;4.88;;;4.43;;
49834;SDS011;35729;52.090;13.162;2023-07-02T09:11:10;4.88;;;4.15;;
49834;SDS011;35729;52.090;13.162;2023-07-02T09:13:46;9.07;;;6.63;;
49834;SDS011;35729;52.090;13.162;2023-07-02T09:16:25;6.63;;;4.90;;
49834;SDS011;35729;52.090;13.162;2023-07-02T09:18:55;5.70;;;4.50;;
49834;SDS011;35729;52.090;13.162;2023-07-02T09:21:41;7.70;;;5.10;;
49834;SDS011;35729;52.090;13.162;2023-07-02T09:24:11;4.78;;;4.38;;
49834;SDS011;35729;52.090;13.162;2023-07-02T09:26:42;6.90;;;5.15;;
49834;SDS011;35729;52.090;13.162;2023-07-02T09:29:11;5.82;;;5.22;;
49834;SDS011;35729;52.090;13.162;2023-07-02T09:31:46;8.35;;;4.70;;
49834;SDS011;35729;52.090;13.162;2023-07-02T09:34:15;11.23;;;6.32;;
49834;SDS011;35729;52.090;13.162;2023-07-02T09:36:44;7.90;;;5.55;;
49834;SDS011;35729;52.090;13.162;2023-07-02T09:39:13;9.63;;;8.45;;
49834;SDS011;35729;52.090;13.162;2023-07-02T09:41:43;8.13;;;7.32;;
49834;SDS011;35729;52.090;13.162;2023-07-02T09:44:12;5.70;;;5.13;;
49834;SDS011;35729;52.090;13.162;2023-07-02T09:46:42;5.93;;;5.40;;
49834;SDS011;35729;52.090;13.162;2023-07-02T09:49:21;6.32;;;5.22;;
49834;SDS011;35729;52.090;13.162;2023-07-02T09:51:50;5.45;;;4.90;;
49834;SDS011;35729;52.090;13.162;2023-07-02T09:54:19;6.35;;;5.38;;
49834;SDS011;35729;52.090;13.162;2023-07-02T09:56:48;6.40;;;4.32;;
49834;SDS011;35729;52.090;13.162;2023-07-02T09:59:16;6.15;;;5.28;;
49834;SDS011;35729;52.090;13.162;2023-07-02T10:02:00;5.30;;;4.88;;
49834;SDS011;35729;52.090;13.162;2023-07-02T10:04:38;10.38;;;5.13;;
49834;SDS011;35729;52.090;13.162;2023-07-02T10:07:08;6.05;;;4.45;;
49834;SDS011;35729;52.090;13.162;2023-07-02T10:09:37;9.73;;;4.75;;
49834;SDS011;35729;52.090;13.162;2023-07-02T10:12:17;5.55;;;4.30;;
49834;SDS011;35729;52.090;13.162;2023-07-02T10:14:46;13.10;;;8.15;;
49834;SDS011;35729;52.090;13.162;2023-07-02T10:17:28;9.38;;;4.50;;
49834;SDS011;35729;52.090;13.162;2023-07-02T10:19:59;12.70;;;5.10;;
49834;SDS011;35729;52.090;13.162;2023-07-02T10:22:41;9.77;;;5.18;;
49834;SDS011;35729;52.090;13.162;2023-07-02T10:25:10;9.25;;;5.05;;
49834;SDS011;35729;52.090;13.162;2023-07-02T10:27:39;11.65;;;5.05;;
49834;SDS011;35729;52.090;13.162;2023-07-02T10:30:09;11.43;;;5.25;;
49834;SDS011;35729;52.090;13.162;2023-07-02T10:32:41;15.18;;;5.47;;
49834;SDS011;35729;52.090;13.162;2023-07-02T10:35:15;12.90;;;5.38;;
49834;SDS011;35729;52.090;13.162;2023-07-02T10:37:44;12.90;;;5.10;;
49834;SDS011;35729;52.090;13.162;2023-07-02T10:40:13;9.75;;;5.47;;
49834;SDS011;35729;52.090;13.162;2023-07-02T10:42:45;10.85;;;5.68;;
49834;SDS011;35729;52.090;13.162;2023-07-02T10:45:15;8.85;;;5.40;;
49834;SDS011;35729;52.090;13.162;2023-07-02T10:47:46;11.90;;;5.30;;
49834;SDS011;35729;52.090;13.162;2023-07-02T10:50:15;10.10;;;5.65;;
49834;SDS011;35729;52.090;13.162;2023-07-02T10:52:44;15.85;;;6.18;;
49834;SDS011;35729;52.090;13.162;2023-07-02T10:55:18;11.93;;;5.85;;
49834;SDS011;35729;52.090;13.162;2023-07-02T10:57:47;11.70;;;5.50;;
49834;SDS011;35729;52.090;13.162;2023-07-02T11:00:16;10.13;;;5.55;;
49834;SDS011;35729;52.090;13.162;2023-07-02T11:02:48;11.27;;;6.60;;
49834;SDS011;35729;52.090;13.162;2023-07-02T11:05:17;12.00;;;6.00;;
49834;SDS011;35729;52.090;13.162;2023-07-02T11:07:45;9.27;;;5.32;;
49834;SDS011;35729;52.090;13.162;2023-07-02T11:10:22;11.20;;;5.47;;
49834;SDS011;35729;52.090;13.162;2023-07-02T11:12:51;14.27;;;5.65;;
49834;SDS011;35729;52.090;13.162;2023-07-02T11:15:20;16.27;;;6.63;;
49834;SDS011;35729;52.090;13.162;2023-07-02T11:17:51;12.45;;;6.00;;
49834;SDS011;35729;52.090;13.162;2023-07-02T11:20:19;10.73;;;6.15;;
49834;SDS011;35729;52.090;13.162;2023-07-02T11:22:48;15.00;;;6.28;;
49834;SDS011;35729;52.090;13.162;2023-07-02T11:25:17;10.38;;;5.38;;
49834;SDS011;35729;52.090;13.162;2023-07-02T11:27:46;12.00;;;6.13;;
49834;SDS011;35729;52.090;13.162;2023-07-02T11:30:15;11.98;;;5.90;;
49834;SDS011;35729;52.090;13.162;2023-07-02T11:32:46;10.60;;;6.00;;
49834;SDS011;35729;52.090;13.162;2023-07-02T11:35:19;10.43;;;5.90;;
49834;SDS011;35729;52.090;13.162;2023-07-02T11:37:48;10.65;;;5.70;;
49834;SDS011;35729;52.090;13.162;2023-07-02T11:40:17;11.32;;;5.75;;
49834;SDS011;35729;52.090;13.162;2023-07-02T11:42:46;12.57;;;6.40;;
49834;SDS011;35729;52.090;13.162;2023-07-02T11:45:15;13.40;;;5.90;;
49834;SDS011;35729;52.090;13.162;2023-07-02T11:47:43;14.65;;;6.35;;
49834;SDS011;35729;52.090;13.162;2023-07-02T11:50:11;13.57;;;5.90;;
49834;SDS011;35729;52.090;13.162;2023-07-02T11:52:43;13.18;;;6.47;;
49834;SDS011;35729;52.090;13.162;2023-07-02T11:55:12;11.27;;;5.90;;
49834;SDS011;35729;52.090;13.162;2023-07-02T11:57:40;10.35;;;6.03;;
49834;SDS011;35729;52.090;13.162;2023-07-02T12:00:09;12.05;;;5.72;;
49834;SDS011;35729;52.090;13.162;2023-07-02T12:02:45;11.70;;;6.18;;
49834;SDS011;35729;52.090;13.162;2023-07-02T12:05:13;11.52;;;5.70;;
49834;SDS011;35729;52.090;13.162;2023-07-02T12:07:44;14.50;;;6.80;;
49834;SDS011;35729;52.090;13.162;2023-07-02T12:10:13;12.43;;;6.25;;
49834;SDS011;35729;52.090;13.162;2023-07-02T12:12:41;13.15;;;6.50;;
49834;SDS011;35729;52.090;13.162;2023-07-02T12:15:10;12.75;;;6.72;;
49834;SDS011;35729;52.090;13.162;2023-07-02T12:17:38;13.70;;;6.10;;
49834;SDS011;35729;52.090;13.162;2023-07-02T12:20:07;14.75;;;6.22;;
49834;SDS011;35729;52.090;13.162;2023-07-02T12:22:37;12.15;;;5.78;;
49834;SDS011;35729;52.090;13.162;2023-07-02T12:25:08;10.68;;;6.00;;
49834;SDS011;35729;52.090;13.162;2023-07-02T12:27:37;12.85;;;5.68;;
49834;SDS011;35729;52.090;13.162;2023-07-02T12:30:06;13.23;;;5.55;;
49834;SDS011;35729;52.090;13.162;2023-07-02T12:32:37;11.82;;;5.95;;
49834;SDS011;35729;52.090;13.162;2023-07-02T12:35:06;11.18;;;5.65;;
49834;SDS011;35729;52.090;13.162;2023-07-02T12:37:42;16.80;;;6.50;;
49834;SDS011;35729;52.090;13.162;2023-07-02T12:40:14;13.45;;;6.53;;
49834;SDS011;35729;52.090;13.162;2023-07-02T12:42:42;14.32;;;6.28;;
49834;SDS011;35729;52.090;13.162;2023-07-02T12:45:12;13.88;;;5.95;;
49834;SDS011;35729;52.090;13.162;2023-07-02T12:47:41;12.68;;;6.10;;
49834;SDS011;35729;52.090;13.162;2023-07-02T12:50:10;12.73;;;6.15;;
49834;SDS011;35729;52.090;13.162;2023-07-02T12:52:39;13.73;;;5.88;;
49834;SDS011;35729;52.090;13.162;2023-07-02T12:55:08;12.73;;;6.10;;
49834;SDS011;35729;52.090;13.162;2023-07-02T12:57:39;13.07;;;6.28;;
49834;SDS011;35729;52.090;13.162;2023-07-02T13:00:08;14.02;;;6.28;;
49834;SDS011;35729;52.090;13.162;2023-07-02T13:02:37;13.73;;;6.45;;
49834;SDS011;35729;52.090;13.162;2023-07-02T13:05:06;11.65;;;5.88;;
49834;SDS011;35729;52.090;13.162;2023-07-02T13:07:34;11.77;;;6.40;;
49834;SDS011;35729;52.090;13.162;2023-07-02T13:10:03;14.07;;;6.55;;
49834;SDS011;35729;52.090;13.162;2023-07-02T13:12:33;12.18;;;5.90;;
49834;SDS011;35729;52.090;13.162;2023-07-02T13:15:04;9.88;;;5.65;;
49834;SDS011;35729;52.090;13.162;2023-07-02T13:17:33;10.32;;;6.40;;
49834;SDS011;35729;52.090;13.162;2023-07-02T13:20:01;13.95;;;6.55;;
49834;SDS011;35729;52.090;13.162;2023-07-02T13:22:30;15.65;;;6.20;;
49834;SDS011;35729;52.090;13.162;2023-07-02T13:24:59;14.93;;;6.15;;
49834;SDS011;35729;52.090;13.162;2023-07-02T13:27:27;15.15;;;6.50;;
49834;SDS011;35729;52.090;13.162;2023-07-02T13:29:56;11.35;;;6.38;;
49834;SDS011;35729;52.090;13.162;2023-07-02T13:32:27;10.45;;;6.13;;
49834;SDS011;35729;52.090;13.162;2023-07-02T13:34:55;17.45;;;6.93;;
49834;SDS011;35729;52.090;13.162;2023-07-02T13:37:24;12.85;;;6.50;;
49834;SDS011;35729;52.090;13.162;2023-07-02T13:39:52;10.18;;;6.28;;
49834;SDS011;35729;52.090;13.162;2023-07-02T13:42:21;10.38;;;5.75;;
49834;SDS011;35729;52.090;13.162;2023-07-02T13:44:50;12.05;;;6.72;;
49834;SDS011;35729;52.090;13.162;2023-07-02T13:47:18;13.70;;;7.00;;
49834;SDS011;35729;52.090;13.162;2023-07-02T13:49:49;13.27;;;6.75;;
49834;SDS011;35729;52.090;13.162;2023-07-02T13:52:18;14.18;;;6.35;;
49834;SDS011;35729;52.090;13.162;2023-07-02T13:54:46;9.88;;;6.05;;
49834;SDS011;35729;52.090;13.162;2023-07-02T13:57:14;13.35;;;6.55;;
49834;SDS011;35729;52.090;13.162;2023-07-02T13:59:46;9.48;;;6.45;;
49834;SDS011;35729;52.090;13.162;2023-07-02T14:02:28;14.30;;;7.35;;
49834;SDS011;35729;52.090;13.162;2023-07-02T14:04:56;12.63;;;6.53;;
49834;SDS011;35729;52.090;13.162;2023-07-02T14:07:25;14.63;;;6.63;;
49834;SDS011;35729;52.090;13.162;2023-07-02T14:09:54;14.50;;;6.07;;
49834;SDS011;35729;52.090;13.162;2023-07-02T14:12:23;14.55;;;6.22;;
49834;SDS011;35729;52.090;13.162;2023-07-02T14:14:55;12.07;;;5.85;;
49834;SDS011;35729;52.090;13.162;2023-07-02T14:17:23;13.55;;;6.35;;
49834;SDS011;35729;52.090;13.162;2023-07-02T14:19:52;14.85;;;6.20;;
49834;SDS011;35729;52.090;13.162;2023-07-02T14:22:20;19.90;;;6.85;;
49834;SDS011;35729;52.090;13.162;2023-07-02T14:24:49;12.02;;;6.53;;
49834;SDS011;35729;52.090;13.162;2023-07-02T14:27:17;15.93;;;6.03;;
49834;SDS011;35729;52.090;13.162;2023-07-02T14:29:46;11.57;;;5.82;;
49834;SDS011;35729;52.090;13.162;2023-07-02T14:32:17;11.80;;;5.97;;
49834;SDS011;35729;52.090;13.162;2023-07-02T14:34:46;13.02;;;5.78;;
49834;SDS011;35729;52.090;13.162;2023-07-02T14:37:14;12.38;;;5.80;;
49834;SDS011;35729;52.090;13.162;2023-07-02T14:39:43;14.70;;;5.78;;
49834;SDS011;35729;52.090;13.162;2023-07-02T14:42:11;11.95;;;6.57;;
49834;SDS011;35729;52.090;13.162;2023-07-02T14:44:40;14.38;;;6.65;;